Time;durP1;ratioP1;P1;durP2;ratioP2;P2;SDS_P1;SDS_P2;PMS_P1;PMS_P2;Temp;Humidity;BMP_temperature;BMP_pressure;BME280_temperature;BME280_humidity;BME280_pressure;Samples;Min_cycle;Max_cycle;Signal;HPM_P1;HPM_P2
2022/06/02 00:01:21;;;;;;;0.40;0.40;;;24.70;49.80;;;;;;5100984;28;20122;-67
2022/06/02 00:04:12;;;;;;;0.40;0.30;;;24.70;49.80;;;;;;5105710;28;20499;-67
2022/06/02 00:06:47;;;;;;;0.30;0.30;;;24.70;49.80;;;;;;5104066;28;20036;-67
2022/06/02 00:09:46;;;;;;;0.40;0.32;;;24.70;49.80;;;;;;5105475;28;20638;-67
2022/06/02 00:12:38;;;;;;;0.20;0.20;;;24.70;49.80;;;;;;5104334;28;20138;-67
2022/06/02 00:15:28;;;;;;;0.30;0.30;;;24.70;49.90;;;;;;5105377;28;20051;-65
2022/06/02 00:18:18;;;;;;;0.40;0.40;;;24.70;49.80;;;;;;5105815;28;20071;-68
2022/06/02 00:20:59;;;;;;;0.28;0.28;;;24.70;49.90;;;;;;5105477;28;20071;-67
2022/06/02 00:23:47;;;;;;;0.20;0.20;;;24.60;49.80;;;;;;5105418;28;20055;-67
2022/06/02 00:26:50;;;;;;;0.30;0.30;;;24.60;49.80;;;;;;5104913;28;20048;-67
2022/06/02 00:29:42;;;;;;;0.25;0.25;;;24.60;49.80;;;;;;5105583;28;20077;-67
2022/06/02 00:32:21;;;;;;;0.30;0.30;;;24.60;49.80;;;;;;5100018;28;20079;-67
2022/06/02 00:35:03;;;;;;;1.48;0.50;;;24.60;49.80;;;;;;5106786;28;20105;-67
2022/06/02 00:37:51;;;;;;;0.63;0.35;;;24.60;49.90;;;;;;5108520;28;20138;-67
2022/06/02 00:40:19;;;;;;;0.50;0.50;;;24.60;49.90;;;;;;5109138;28;20083;-67
2022/06/02 00:42:54;;;;;;;0.30;0.30;;;24.60;49.90;;;;;;5107581;28;20079;-67
2022/06/02 00:45:23;;;;;;;0.30;0.30;;;24.60;49.90;;;;;;5109181;28;20075;-67
2022/06/02 00:48:11;;;;;;;0.20;0.20;;;24.60;49.90;;;;;;5109146;28;20134;-67
2022/06/02 00:51:06;;;;;;;0.30;0.30;;;24.60;49.90;;;;;;5108947;28;20047;-68
2022/06/02 00:57:34;;;;;;;0.30;0.20;;;24.60;50.00;;;;;;5108973;28;20044;-67
2022/06/02 01:00:19;;;;;;;0.47;0.47;;;24.50;49.90;;;;;;5109500;28;20043;-67
2022/06/02 01:03:13;;;;;;;0.38;0.38;;;24.50;49.90;;;;;;5108120;28;20055;-68
2022/06/02 01:06:23;;;;;;;0.55;0.30;;;24.50;50.00;;;;;;5107897;28;20105;-67
2022/06/02 01:09:07;;;;;;;0.40;0.40;;;24.50;50.00;;;;;;5096411;28;20066;-68
2022/06/02 01:12:04;;;;;;;0.20;0.20;;;24.50;50.50;;;;;;5107752;28;20116;-67
2022/06/02 01:14:55;;;;;;;0.30;0.30;;;24.50;50.00;;;;;;5106456;28;20327;-68
2022/06/02 01:17:45;;;;;;;0.57;0.57;;;24.50;50.00;;;;;;5108717;28;20082;-67
2022/06/02 01:20:30;;;;;;;0.52;0.52;;;24.50;50.10;;;;;;5106818;28;20120;-67
2022/06/02 01:23:37;;;;;;;0.47;0.40;;;24.50;50.10;;;;;;5108784;28;20228;-67
2022/06/02 01:26:32;;;;;;;0.70;0.50;;;24.50;50.00;;;;;;5106366;28;20077;-68
2022/06/02 01:29:33;;;;;;;0.32;0.32;;;24.50;50.10;;;;;;5108428;28;20392;-67
2022/06/02 01:32:10;;;;;;;0.40;0.30;;;24.50;50.60;;;;;;5107025;28;20093;-68
2022/06/02 01:34:59;;;;;;;0.95;0.20;;;24.50;50.10;;;;;;5103748;28;20364;-68
2022/06/02 01:37:39;;;;;;;0.45;0.40;;;24.50;50.10;;;;;;5107472;28;20069;-67
2022/06/02 01:40:38;;;;;;;0.22;0.22;;;24.50;50.10;;;;;;5091142;28;20079;-67
2022/06/02 01:43:28;;;;;;;0.65;0.20;;;24.50;50.10;;;;;;5106672;28;20107;-67
2022/06/02 01:46:23;;;;;;;0.50;0.50;;;24.50;50.10;;;;;;5106047;28;20083;-68
2022/06/02 01:49:05;;;;;;;0.45;0.38;;;24.50;50.10;;;;;;5106244;28;20044;-67
2022/06/02 01:52:03;;;;;;;0.30;0.30;;;24.50;50.10;;;;;;5107524;27;20075;-68
2022/06/02 01:54:44;;;;;;;0.70;0.35;;;24.50;50.10;;;;;;5106203;28;20127;-68
2022/06/02 01:57:41;;;;;;;0.40;0.40;;;24.50;50.10;;;;;;5108158;28;20039;-67
2022/06/02 02:00:13;;;;;;;0.50;0.50;;;24.50;50.10;;;;;;5107563;28;20152;-68
2022/06/02 02:02:57;;;;;;;0.50;0.40;;;24.50;50.20;;;;;;5106256;28;20484;-67
2022/06/02 02:05:42;;;;;;;0.50;0.50;;;24.50;50.10;;;;;;5107998;28;20071;-68
2022/06/02 02:08:44;;;;;;;0.40;0.40;;;24.50;50.20;;;;;;5104281;28;20067;-68
2022/06/02 02:11:47;;;;;;;0.30;0.30;;;24.50;50.20;;;;;;5094553;28;20484;-67
2022/06/02 02:14:40;;;;;;;0.30;0.30;;;24.50;50.20;;;;;;5107002;28;20116;-68
2022/06/02 02:17:47;;;;;;;0.30;0.30;;;24.50;50.20;;;;;;5107220;28;20641;-68
2022/06/02 02:20:27;;;;;;;0.45;0.45;;;24.50;50.20;;;;;;5106166;28;20078;-68
2022/06/02 02:23:28;;;;;;;0.20;0.20;;;24.50;50.20;;;;;;5107240;28;20043;-68
2022/06/02 02:26:09;;;;;;;0.43;0.43;;;24.50;50.20;;;;;;5106074;28;20561;-68
2022/06/02 02:29:12;;;;;;;0.43;0.43;;;24.40;50.20;;;;;;5106391;28;20094;-68
2022/06/02 02:32:19;;;;;;;0.30;0.30;;;24.40;50.20;;;;;;5108499;28;20047;-67
2022/06/02 02:35:09;;;;;;;0.28;0.28;;;24.40;50.20;;;;;;5106360;28;20086;-68
2022/06/02 02:37:57;;;;;;;0.30;0.30;;;24.40;50.20;;;;;;5085514;28;20043;-68
2022/06/02 02:40:32;;;;;;;0.40;0.40;;;24.40;50.30;;;;;;5106648;28;20070;-68
2022/06/02 02:43:10;;;;;;;0.50;0.50;;;24.40;50.30;;;;;;5108455;28;20075;-68
2022/06/02 02:45:48;;;;;;;0.75;0.40;;;24.40;50.90;;;;;;5108089;28;20059;-68
2022/06/02 02:48:55;;;;;;;0.38;0.38;;;24.40;50.30;;;;;;5108222;28;20054;-68
2022/06/02 02:51:52;;;;;;;0.38;0.38;;;24.40;50.30;;;;;;5107877;28;20381;-68
2022/06/02 02:54:53;;;;;;;0.40;0.40;;;24.40;50.30;;;;;;5106392;28;20055;-67
2022/06/02 02:57:46;;;;;;;0.40;0.40;;;24.40;50.30;;;;;;5106768;28;20044;-68
2022/06/02 03:00:28;;;;;;;0.20;0.20;;;24.40;50.40;;;;;;5107674;28;20126;-68
2022/06/02 03:03:29;;;;;;;0.60;0.60;;;24.40;50.40;;;;;;5107682;28;20478;-68
2022/06/02 03:06:23;;;;;;;0.30;0.30;;;24.40;50.40;;;;;;5107626;28;20048;-68
2022/06/02 03:09:22;;;;;;;0.65;0.55;;;24.40;50.40;;;;;;5105836;28;20079;-68
2022/06/02 03:12:10;;;;;;;0.43;0.43;;;24.40;50.40;;;;;;5107695;28;20187;-68
2022/06/02 03:14:56;;;;;;;0.40;0.40;;;24.40;50.40;;;;;;5107021;28;20200;-68
2022/06/02 03:17:40;;;;;;;0.32;0.32;;;24.40;50.40;;;;;;5108168;28;20116;-68
2022/06/02 03:20:26;;;;;;;0.40;0.40;;;24.40;50.40;;;;;;5106898;28;20076;-68
2022/06/02 03:23:13;;;;;;;;;;;24.40;50.40;;;;;;5106346;28;20111;-68
2022/06/02 03:26:00;;;;;;;0.50;0.40;;;24.40;50.40;;;;;;5106706;28;20364;-68
2022/06/02 03:28:51;;;;;;;0.40;0.40;;;24.40;50.40;;;;;;5106662;28;20083;-68
2022/06/02 03:31:37;;;;;;;0.88;0.30;;;24.40;50.30;;;;;;5105922;28;20327;-68
2022/06/02 03:34:44;;;;;;;0.50;0.40;;;24.40;50.30;;;;;;5101222;28;20304;-68
2022/06/02 03:37:42;;;;;;;0.47;0.47;;;24.40;50.30;;;;;;5092968;27;20101;-68
2022/06/02 03:40:34;;;;;;;0.40;0.40;;;24.40;50.30;;;;;;5098549;28;20105;-68
2022/06/02 03:43:30;;;;;;;0.40;0.40;;;24.40;50.30;;;;;;5087546;28;20101;-68
2022/06/02 03:46:29;;;;;;;0.65;0.65;;;24.40;50.30;;;;;;5103179;28;20039;-68
2022/06/02 03:49:17;;;;;;;0.60;0.30;;;24.40;50.30;;;;;;5104281;28;20402;-68
2022/06/02 03:52:12;;;;;;;0.40;0.40;;;24.40;50.30;;;;;;5086674;28;20055;-68
2022/06/02 03:55:11;;;;;;;0.38;0.38;;;24.50;50.30;;;;;;5085041;28;20101;-68
2022/06/02 03:58:08;;;;;;;0.95;0.63;;;24.50;50.30;;;;;;5085925;28;20358;-68
2022/06/02 04:00:48;;;;;;;0.75;0.73;;;24.50;50.20;;;;;;5085538;28;20121;-68
2022/06/02 04:03:42;;;;;;;0.50;0.50;;;24.50;50.20;;;;;;5086130;28;20496;-69
2022/06/02 04:06:23;;;;;;;1.15;0.65;;;24.50;50.20;;;;;;5070572;28;20131;-68
2022/06/02 04:09:14;;;;;;;0.20;0.20;;;24.50;50.20;;;;;;5086320;28;20048;-68
2022/06/02 04:15:20;;;;;;;0.40;0.40;;;24.50;50.10;;;;;;5090320;28;20070;-68
2022/06/02 04:18:00;;;;;;;0.30;0.30;;;24.50;50.10;;;;;;5090301;28;20090;-68
2022/06/02 04:20:55;;;;;;;0.38;0.38;;;24.50;50.10;;;;;;5090667;28;20048;-68
2022/06/02 04:23:49;;;;;;;0.35;0.35;;;24.50;50.00;;;;;;5072322;28;20051;-68
2022/06/02 04:26:42;;;;;;;0.35;0.35;;;24.50;50.00;;;;;;5089234;28;20146;-68
2022/06/02 04:29:49;;;;;;;0.43;0.40;;;24.50;50.00;;;;;;5090310;28;20040;-68
2022/06/02 04:32:56;;;;;;;0.30;0.30;;;24.60;50.00;;;;;;5088723;28;20133;-68
2022/06/02 04:35:51;;;;;;;0.20;0.20;;;24.60;50.00;;;;;;5089091;28;20515;-67
2022/06/02 04:38:36;;;;;;;0.47;0.47;;;24.60;49.90;;;;;;5089347;28;20044;-68
2022/06/02 04:41:30;;;;;;;0.50;0.50;;;24.60;49.80;;;;;;5101588;28;20062;-68
2022/06/02 04:44:26;;;;;;;0.50;0.50;;;24.70;49.80;;;;;;5095231;28;20491;-68
2022/06/02 04:47:34;;;;;;;0.85;0.60;;;24.70;49.70;;;;;;5108152;28;20143;-68
2022/06/02 04:50:32;;;;;;;0.63;0.40;;;24.70;49.60;;;;;;5098065;28;20138;-67
2022/06/02 04:53:39;;;;;;;0.38;0.38;;;24.70;49.50;;;;;;5108103;28;20096;-68
2022/06/02 04:56:36;;;;;;;0.40;0.40;;;24.80;49.40;;;;;;5108191;28;20040;-68
2022/06/02 04:59:18;;;;;;;0.20;0.20;;;24.90;49.40;;;;;;5089121;28;20080;-68
2022/06/02 05:02:25;;;;;;;0.40;0.40;;;24.90;49.30;;;;;;5088031;28;20323;-68
2022/06/02 05:05:16;;;;;;;0.63;0.35;;;25.00;49.20;;;;;;5089040;28;20249;-68
2022/06/02 05:08:10;;;;;;;0.40;0.40;;;25.00;49.10;;;;;;5098407;28;20047;-68
2022/06/02 05:10:53;;;;;;;0.32;0.30;;;24.90;49.30;;;;;;5095245;27;20550;-68
2022/06/02 05:13:34;;;;;;;0.38;0.38;;;24.90;49.80;;;;;;5094531;28;20085;-68
2022/06/02 05:16:29;;;;;;;0.40;0.40;;;24.70;50.20;;;;;;5092236;28;20112;-68
2022/06/02 05:19:34;;;;;;;0.40;0.40;;;24.50;50.90;;;;;;5097675;27;20521;-68
2022/06/02 05:22:31;;;;;;;0.45;0.45;;;24.30;51.70;;;;;;5087547;28;20455;-66
2022/06/02 05:25:27;;;;;;;0.45;0.45;;;23.90;52.10;;;;;;5096031;28;20075;-65
2022/06/02 05:28:25;;;;;;;0.50;0.50;;;23.60;51.70;;;;;;5094595;28;20044;-71
2022/06/02 05:31:18;;;;;;;0.93;0.85;;;23.20;51.20;;;;;;5088787;28;20071;-70
2022/06/02 05:34:13;;;;;;;2.22;1.67;;;22.80;52.00;;;;;;5092773;27;20051;-69
2022/06/02 05:36:59;;;;;;;1.70;1.60;;;22.30;52.50;;;;;;5092846;27;20056;-72
2022/06/02 05:40:00;;;;;;;2.50;1.45;;;21.90;52.60;;;;;;5089589;28;20096;-70
2022/06/02 05:42:48;;;;;;;1.90;1.48;;;21.50;52.60;;;;;;5092138;28;20059;-71
2022/06/02 05:45:41;;;;;;;1.75;1.65;;;21.10;53.60;;;;;;5096656;27;20093;-70
2022/06/02 05:48:37;;;;;;;1.80;1.70;;;20.80;55.60;;;;;;5085912;28;20130;-73
2022/06/02 05:51:32;;;;;;;2.78;2.28;;;20.60;56.10;;;;;;5088479;28;20040;-72
2022/06/02 05:54:27;;;;;;;5.18;2.20;;;20.30;56.00;;;;;;5086406;28;20220;-71
2022/06/02 05:57:17;;;;;;;2.13;1.80;;;20.10;56.80;;;;;;5089194;28;20044;-74
2022/06/02 06:00:08;;;;;;;2.10;1.38;;;19.90;56.30;;;;;;5090594;28;20097;-73
2022/06/02 06:03:15;;;;;;;2.78;1.58;;;19.70;57.10;;;;;;5090362;28;20127;-72
2022/06/02 06:05:52;;;;;;;5.15;2.38;;;19.50;57.80;;;;;;5094768;27;20047;-73
2022/06/02 06:09:02;;;;;;;5.80;2.38;;;19.40;57.40;;;;;;5091135;28;20488;-74
2022/06/02 06:11:48;;;;;;;3.07;2.10;;;19.30;58.20;;;;;;5084110;28;20043;-75
2022/06/02 06:14:55;;;;;;;3.53;2.15;;;19.20;59.00;;;;;;5092419;27;20083;-75
2022/06/02 07:03:55;;;;;;;2.65;2.10;;;17.90;61.70;;;;;;5089456;27;20101;-66
2022/06/02 07:06:41;;;;;;;3.05;1.88;;;17.90;61.30;;;;;;5093615;27;20101;-70
2022/06/02 07:09:43;;;;;;;2.72;2.42;;;17.90;62.20;;;;;;5094538;27;20067;-66
2022/06/02 07:15:20;;;;;;;2.90;1.92;;;17.90;62.00;;;;;;5090327;28;20048;-66
2022/06/02 07:18:07;;;;;;;2.65;2.45;;;17.90;62.40;;;;;;5091445;28;20116;-68
2022/06/02 07:21:01;;;;;;;1.98;1.88;;;17.90;61.70;;;;;;5099537;27;20476;-67
2022/06/02 07:24:08;;;;;;;3.15;2.40;;;17.90;61.50;;;;;;5091686;27;20495;-69
2022/06/02 07:27:10;;;;;;;2.17;1.88;;;17.90;63.10;;;;;;5084872;28;20433;-70
2022/06/02 07:30:18;;;;;;;4.93;2.05;;;17.90;61.70;;;;;;5090395;28;20480;-67
2022/06/02 07:33:26;;;;;;;3.97;2.15;;;18.00;61.20;;;;;;5089482;28;20065;-65
2022/06/02 07:36:33;;;;;;;3.35;2.42;;;18.00;63.00;;;;;;5091920;27;20047;-68
2022/06/02 07:39:42;;;;;;;3.03;2.72;;;18.00;62.00;;;;;;5090823;28;20444;-68
2022/06/02 07:42:38;;;;;;;2.65;2.45;;;17.90;62.60;;;;;;5090086;27;20043;-67
2022/06/02 07:45:27;;;;;;;4.35;3.38;;;18.00;63.60;;;;;;5090253;28;20047;-69
2022/06/02 07:48:31;;;;;;;4.20;2.85;;;18.00;62.80;;;;;;5091325;27;20435;-68
2022/06/02 07:51:33;;;;;;;5.78;2.72;;;17.90;62.10;;;;;;5090977;28;20047;-67
2022/06/02 07:54:18;;;;;;;4.70;2.80;;;18.00;64.40;;;;;;5088810;28;20074;-69
2022/06/02 07:57:23;;;;;;;2.88;2.50;;;18.00;63.30;;;;;;5087245;28;20048;-75
2022/06/02 08:00:13;;;;;;;2.92;2.60;;;18.00;62.20;;;;;;5090351;28;20040;-67
2022/06/02 08:03:12;;;;;;;2.55;2.35;;;18.00;62.90;;;;;;5087203;28;20048;-67
2022/06/02 08:06:15;;;;;;;11.25;2.88;;;18.00;62.10;;;;;;5086709;28;20128;-65
2022/06/02 08:09:32;;;;;;;4.75;2.65;;;17.90;63.10;;;;;;5092988;28;20135;-66
2022/06/02 08:12:21;;;;;;;3.30;3.00;;;18.00;63.30;;;;;;5093205;28;20059;-67
2022/06/02 08:15:16;;;;;;;6.63;3.40;;;18.10;62.50;;;;;;5093290;28;20048;-66
2022/06/02 08:17:56;;;;;;;2.08;1.98;;;18.10;63.00;;;;;;5093908;28;20097;-67
2022/06/02 08:20:53;;;;;;;5.47;2.38;;;18.10;62.60;;;;;;5088654;28;20040;-66
2022/06/02 08:23:45;;;;;;;3.75;3.05;;;18.10;62.10;;;;;;5083137;28;20059;-68
2022/06/02 08:26:19;;;;;;;4.85;2.00;;;18.10;62.30;;;;;;5087957;28;20043;-66
2022/06/02 08:29:11;;;;;;;3.70;2.22;;;18.10;61.90;;;;;;5093610;28;20052;-69
2022/06/02 08:32:00;;;;;;;2.55;2.35;;;18.10;62.30;;;;;;5086430;28;20044;-69
2022/06/02 08:34:51;;;;;;;3.58;2.38;;;18.10;61.90;;;;;;5091867;28;20508;-69
2022/06/02 08:37:58;;;;;;;4.78;2.75;;;18.10;62.20;;;;;;5096553;28;20048;-67
2022/06/02 08:44:37;;;;;;;3.67;2.47;;;18.20;63.40;;;;;;5090564;28;20442;-69
2022/06/02 08:47:45;;;;;;;3.92;3.05;;;18.30;63.20;;;;;;5091058;28;20044;-69
2022/06/02 08:50:41;;;;;;;4.85;3.20;;;18.30;62.70;;;;;;5089822;28;20055;-68
2022/06/02 08:53:48;;;;;;;2.90;2.70;;;18.30;63.10;;;;;;5089376;28;20040;-70
2022/06/02 08:56:55;;;;;;;4.43;3.60;;;18.30;62.80;;;;;;5096921;28;20044;-69
2022/06/02 09:00:02;;;;;;;3.47;2.63;;;18.50;62.60;;;;;;5096838;27;20051;-67
2022/06/02 09:02:53;;;;;;;3.95;3.25;;;18.50;61.70;;;;;;5091825;28;20101;-69
2022/06/02 09:05:58;;;;;;;3.03;2.75;;;18.50;61.80;;;;;;5099279;27;20514;-70
2022/06/02 09:09:05;;;;;;;4.60;2.70;;;18.50;63.50;;;;;;5098751;28;20048;-68
2022/06/02 09:12:06;;;;;;;2.60;2.40;;;18.50;62.50;;;;;;5110683;27;20102;-65
2022/06/02 09:15:03;;;;;;;2.92;2.72;;;18.50;63.00;;;;;;5090439;28;20537;-69
2022/06/02 09:17:46;;;;;;;5.07;2.67;;;18.60;63.70;;;;;;5092491;28;20043;-68
2022/06/02 09:20:45;;;;;;;3.67;2.67;;;18.60;62.20;;;;;;5093823;27;20063;-69
2022/06/02 09:23:46;;;;;;;2.70;2.50;;;18.60;61.60;;;;;;5091990;28;20447;-70
2022/06/02 09:26:41;;;;;;;3.65;2.55;;;18.70;62.80;;;;;;5096373;27;20044;-69
2022/06/02 09:29:24;;;;;;;2.83;2.60;;;18.60;62.10;;;;;;5096118;27;21367;-70
2022/06/02 09:32:19;;;;;;;3.72;3.03;;;18.70;61.50;;;;;;5089695;28;20484;-71
2022/06/02 09:35:13;;;;;;;3.85;2.47;;;18.70;60.90;;;;;;5093227;28;20047;-67
2022/06/02 09:38:07;;;;;;;8.25;2.42;;;18.70;60.90;;;;;;5092457;28;20040;-68
2022/06/02 09:41:08;;;;;;;3.88;3.05;;;18.70;60.60;;;;;;5096804;27;20043;-68
2022/06/02 09:44:04;;;;;;;3.53;2.53;;;18.60;60.10;;;;;;5097239;28;20039;-67
2022/06/02 09:47:08;;;;;;;5.20;3.05;;;18.60;60.40;;;;;;5091638;28;20051;-69
2022/06/02 09:50:16;;;;;;;2.78;2.00;;;18.50;61.50;;;;;;5092380;28;20035;-69
2022/06/02 09:53:22;;;;;;;2.25;1.95;;;18.50;61.10;;;;;;5091823;27;20093;-68
2022/06/02 09:56:20;;;;;;;2.22;2.03;;;18.50;61.20;;;;;;5094708;28;20055;-69
2022/06/02 09:59:10;;;;;;;2.47;1.83;;;18.50;61.40;;;;;;5097725;28;20047;-67
2022/06/02 10:02:00;;;;;;;2.83;1.90;;;18.60;61.40;;;;;;5088393;28;20048;-68
2022/06/02 10:04:57;;;;;;;3.17;2.05;;;18.50;61.10;;;;;;5096879;27;20048;-70
2022/06/02 10:07:54;;;;;;;3.33;2.20;;;18.60;61.80;;;;;;5086588;28;20048;-68
2022/06/02 10:10:47;;;;;;;3.00;2.05;;;18.60;60.00;;;;;;5090738;28;20109;-68
2022/06/02 10:13:52;;;;;;;2.00;1.80;;;18.60;59.80;;;;;;5095090;28;21002;-68
2022/06/02 10:16:53;;;;;;;2.15;1.58;;;18.50;60.10;;;;;;5090906;27;20102;-69
2022/06/02 10:19:54;;;;;;;2.22;2.13;;;18.50;60.00;;;;;;5090965;28;20101;-69
2022/06/02 10:22:42;;;;;;;2.25;1.70;;;18.50;60.00;;;;;;5087709;28;20503;-68
2022/06/02 10:25:40;;;;;;;2.40;1.42;;;18.50;60.50;;;;;;5091568;27;20496;-68
2022/06/02 10:28:41;;;;;;;1.70;1.60;;;18.40;60.70;;;;;;5096824;28;20048;-64
2022/06/02 10:31:49;;;;;;;1.70;1.60;;;18.40;60.80;;;;;;5096670;28;20044;-69
2022/06/02 10:34:54;;;;;;;4.40;2.00;;;18.40;60.80;;;;;;5081251;28;20343;-65
2022/06/02 10:37:51;;;;;;;1.88;1.77;;;18.40;60.00;;;;;;5095656;28;20058;-66
2022/06/02 10:40:46;;;;;;;1.63;1.52;;;18.50;59.80;;;;;;5094341;27;20048;-66
2022/06/02 10:43:39;;;;;;;1.67;1.58;;;18.40;59.80;;;;;;5096615;28;20040;-65
2022/06/02 10:46:39;;;;;;;2.53;1.55;;;18.50;60.00;;;;;;5090557;28;20725;-65
2022/06/02 10:49:25;;;;;;;1.65;1.55;;;18.50;59.60;;;;;;5093604;28;20499;-65
2022/06/02 10:52:32;;;;;;;1.63;1.52;;;18.50;59.70;;;;;;5085611;28;20052;-65
2022/06/02 10:55:39;;;;;;;1.63;1.52;;;18.50;59.50;;;;;;5083253;28;20063;-66
2022/06/02 10:58:47;;;;;;;2.13;1.90;;;18.60;60.00;;;;;;5095247;27;20047;-66
2022/06/02 11:01:56;;;;;;;2.35;1.63;;;18.60;59.90;;;;;;5089860;28;20409;-68
2022/06/02 11:04:56;;;;;;;1.42;1.33;;;18.60;58.80;;;;;;5094786;27;20160;-67
2022/06/02 11:08:01;;;;;;;1.40;1.30;;;18.60;59.30;;;;;;5086790;27;20528;-68
2022/06/02 11:10:53;;;;;;;3.50;1.15;;;18.50;59.40;;;;;;5095988;27;20056;-67
2022/06/02 11:14:00;;;;;;;3.42;1.50;;;18.40;59.80;;;;;;5095593;27;20564;-68
2022/06/02 11:17:05;;;;;;;1.95;1.00;;;18.40;60.00;;;;;;5091485;28;20123;-71
2022/06/02 11:20:13;;;;;;;3.60;1.40;;;18.30;60.10;;;;;;5088615;27;20735;-69
2022/06/02 11:23:12;;;;;;;1.67;1.58;;;18.40;60.10;;;;;;5087799;28;20044;-69
2022/06/02 11:26:16;;;;;;;2.33;1.60;;;18.50;60.90;;;;;;5089924;28;20040;-67
2022/06/02 11:29:22;;;;;;;1.38;1.27;;;18.50;60.80;;;;;;5087964;28;20602;-68
2022/06/02 11:32:13;;;;;;;1.27;1.27;;;18.50;60.60;;;;;;5102979;27;20067;-68
2022/06/02 11:35:12;;;;;;;1.48;1.38;;;18.60;60.10;;;;;;5087949;28;20044;-68
2022/06/02 11:38:12;;;;;;;1.88;1.52;;;18.60;59.80;;;;;;5085549;28;20051;-68
2022/06/02 11:41:07;;;;;;;1.48;1.38;;;18.70;59.20;;;;;;5092392;27;20147;-68
2022/06/02 11:44:07;;;;;;;1.50;1.35;;;18.60;59.30;;;;;;5087742;28;20044;-69
2022/06/02 11:47:02;;;;;;;3.80;1.40;;;18.60;59.80;;;;;;5094186;27;20055;-67
2022/06/02 11:49:57;;;;;;;1.00;1.00;;;18.70;60.50;;;;;;5091197;28;20126;-69
2022/06/02 11:53:03;;;;;;;1.20;1.20;;;18.60;59.90;;;;;;5089955;27;20078;-65
2022/06/02 11:56:01;;;;;;;1.58;1.48;;;18.70;60.10;;;;;;5086449;28;20051;-67
2022/06/02 11:59:02;;;;;;;1.35;1.25;;;18.70;60.60;;;;;;5091871;28;20044;-65
2022/06/02 12:02:09;;;;;;;1.23;1.23;;;18.80;61.10;;;;;;5095229;28;20408;-68
2022/06/02 12:05:11;;;;;;;3.58;1.30;;;18.80;60.30;;;;;;5092082;28;20711;-67
2022/06/02 12:08:12;;;;;;;1.33;1.10;;;18.90;60.40;;;;;;5087351;28;20143;-64
2022/06/02 12:11:19;;;;;;;1.20;1.10;;;18.90;61.00;;;;;;5089568;28;20044;-69
2022/06/02 12:14:18;;;;;;;4.10;1.77;;;18.90;60.20;;;;;;5094260;28;20052;-69
2022/06/02 12:17:22;;;;;;;3.88;1.48;;;19.00;60.70;;;;;;5089303;28;20063;-68
2022/06/02 12:20:13;;;;;;;1.55;1.45;;;19.00;60.10;;;;;;5093080;28;20065;-67
2022/06/02 12:23:07;;;;;;;1.63;1.40;;;19.00;60.40;;;;;;5082083;28;21371;-68
2022/06/02 12:26:03;;;;;;;1.98;1.38;;;19.00;60.20;;;;;;5088319;28;20097;-69
2022/06/02 12:29:10;;;;;;;1.10;1.08;;;19.00;60.50;;;;;;5084159;28;20040;-70
2022/06/02 12:32:04;;;;;;;1.13;1.05;;;19.10;60.70;;;;;;5089167;28;20044;-69
2022/06/02 12:35:01;;;;;;;1.13;0.88;;;19.10;61.20;;;;;;5098722;28;20496;-70
2022/06/02 12:38:08;;;;;;;1.25;1.02;;;19.20;60.70;;;;;;5101579;27;20052;-66
2022/06/02 12:41:08;;;;;;;1.73;1.08;;;19.20;60.80;;;;;;5093099;28;20153;-67
2022/06/02 12:44:15;;;;;;;1.27;1.27;;;19.30;60.90;;;;;;5101128;28;20138;-65
2022/06/02 12:47:14;;;;;;;1.00;1.00;;;19.30;60.70;;;;;;5091768;28;20519;-64
2022/06/02 12:50:22;;;;;;;3.60;1.10;;;19.40;60.80;;;;;;5093132;28;20048;-65
2022/06/02 12:53:17;;;;;;;1.10;1.02;;;19.40;60.80;;;;;;5087559;28;20253;-65
2022/06/02 12:56:16;;;;;;;1.00;1.00;;;19.40;60.60;;;;;;5101118;28;20102;-64
2022/06/02 12:59:21;;;;;;;0.95;0.80;;;19.40;60.40;;;;;;5095594;27;20048;-64
2022/06/02 13:02:00;;;;;;;2.95;1.17;;;19.40;60.90;;;;;;5094962;28;21108;-69
2022/06/02 13:05:07;;;;;;;2.00;1.10;;;19.40;60.80;;;;;;5106339;27;20043;-68
2022/06/02 13:08:15;;;;;;;1.20;0.98;;;19.40;60.70;;;;;;5095196;28;20403;-67
2022/06/02 13:11:05;;;;;;;1.02;1.02;;;19.50;60.90;;;;;;5113036;27;20473;-70
2022/06/02 13:14:06;;;;;;;2.53;1.20;;;19.50;60.60;;;;;;5095809;27;20080;-70
2022/06/02 13:17:13;;;;;;;0.85;0.85;;;19.60;61.00;;;;;;5096611;28;20051;-70
2022/06/02 13:20:11;;;;;;;1.45;0.80;;;19.60;60.40;;;;;;5094633;28;20043;-69
2022/06/02 13:23:14;;;;;;;1.20;1.10;;;19.60;60.50;;;;;;5091869;28;20365;-69
2022/06/02 13:26:16;;;;;;;0.88;0.80;;;19.60;60.40;;;;;;5096835;28;20071;-71
2022/06/02 13:29:23;;;;;;;1.08;0.95;;;19.60;60.10;;;;;;5089092;28;20043;-70
2022/06/02 13:32:29;;;;;;;0.88;0.88;;;19.60;60.20;;;;;;5094525;28;20514;-70
2022/06/02 13:35:35;;;;;;;0.95;0.95;;;19.60;60.10;;;;;;5096187;27;20924;-69
2022/06/02 13:38:37;;;;;;;0.73;0.73;;;19.60;59.80;;;;;;5092008;28;20474;-74
2022/06/02 13:41:32;;;;;;;0.82;0.82;;;19.60;60.00;;;;;;5094826;28;20056;-70
2022/06/02 13:44:41;;;;;;;0.80;0.80;;;19.60;60.20;;;;;;5088615;28;20048;-68
2022/06/02 13:47:45;;;;;;;1.15;1.05;;;19.60;60.40;;;;;;5093791;28;20557;-71
2022/06/02 13:50:52;;;;;;;1.05;0.70;;;19.60;60.20;;;;;;5098464;28;20204;-73
2022/06/02 13:57:31;;;;;;;0.95;0.95;;;19.50;60.40;;;;;;5091420;28;20488;-71
2022/06/02 14:00:22;;;;;;;0.68;0.68;;;19.50;60.20;;;;;;5089154;28;20048;-72
2022/06/02 14:03:06;;;;;;;0.95;0.95;;;19.50;60.60;;;;;;5093700;28;20055;-74
2022/06/02 14:06:08;;;;;;;1.35;1.10;;;19.50;60.50;;;;;;5094512;28;20448;-73
2022/06/02 14:09:06;;;;;;;0.77;0.77;;;19.50;60.40;;;;;;5094865;28;20147;-68
2022/06/02 14:12:04;;;;;;;1.08;1.08;;;19.50;60.70;;;;;;5097125;28;20040;-70
2022/06/02 14:15:00;;;;;;;0.90;0.90;;;19.60;60.60;;;;;;5093619;27;20044;-68
2022/06/02 14:18:01;;;;;;;1.00;1.00;;;19.60;60.30;;;;;;5094011;28;20048;-69
2022/06/02 14:20:54;;;;;;;1.35;0.88;;;19.60;60.60;;;;;;5093320;28;20048;-70
2022/06/02 14:23:56;;;;;;;0.80;0.80;;;19.60;60.60;;;;;;5089441;28;20417;-75
2022/06/02 14:26:58;;;;;;;0.80;0.80;;;19.60;60.60;;;;;;5091239;28;20051;-69
2022/06/02 14:30:07;;;;;;;2.05;1.00;;;19.60;60.90;;;;;;5092214;27;20479;-70
2022/06/02 14:33:14;;;;;;;1.40;1.00;;;19.60;60.60;;;;;;5089132;28;20129;-68
2022/06/02 14:36:07;;;;;;;1.23;1.13;;;19.60;60.60;;;;;;5087996;28;20403;-67
2022/06/02 14:39:09;;;;;;;1.73;1.20;;;19.60;60.60;;;;;;5090141;28;20040;-66
2022/06/02 14:42:14;;;;;;;0.95;0.90;;;19.50;60.10;;;;;;5084127;28;20059;-67
2022/06/02 14:44:59;;;;;;;1.27;1.10;;;19.60;60.10;;;;;;5089195;28;20558;-67
2022/06/02 14:47:59;;;;;;;1.13;1.08;;;19.60;60.40;;;;;;5081533;28;20128;-65
2022/06/02 14:51:13;;;;;;;0.80;0.80;;;19.60;60.20;;;;;;5092609;27;20050;-65
2022/06/02 14:54:09;;;;;;;0.77;0.77;;;19.60;61.60;;;;;;5095672;28;20604;-65
2022/06/02 14:57:05;;;;;;;0.80;0.80;;;19.60;61.60;;;;;;5088913;28;20046;-65
2022/06/02 14:59:58;;;;;;;0.85;0.85;;;19.70;61.90;;;;;;5087939;28;20480;-65
2022/06/02 15:03:05;;;;;;;4.35;0.88;;;19.80;62.70;;;;;;5087539;28;20044;-67
2022/06/02 15:05:55;;;;;;;0.93;0.93;;;19.90;63.00;;;;;;5095424;28;20067;-67
2022/06/02 15:08:56;;;;;;;0.90;0.90;;;20.00;63.30;;;;;;5086069;28;20043;-67
2022/06/02 15:12:02;;;;;;;1.15;1.10;;;20.10;63.50;;;;;;5099047;27;20356;-66
2022/06/02 15:15:09;;;;;;;3.42;1.10;;;20.30;63.30;;;;;;5086752;28;20155;-66
2022/06/02 15:18:02;;;;;;;0.80;0.80;;;20.40;63.50;;;;;;5085932;28;20093;-67
2022/06/02 15:21:07;;;;;;;0.85;0.85;;;20.60;63.60;;;;;;5087810;28;20439;-63
2022/06/02 15:24:21;;;;;;;1.38;0.95;;;20.70;63.60;;;;;;5096932;28;20054;-64
2022/06/02 15:27:22;;;;;;;2.47;1.05;;;20.90;63.60;;;;;;5077122;28;20081;-64
2022/06/02 15:30:04;;;;;;;;;;;21.00;63.50;;;;;;5095283;28;20052;-64
2022/06/02 15:33:07;;;;;;;1.10;1.10;;;21.10;63.40;;;;;;5092252;28;20291;-65
2022/06/02 15:35:51;;;;;;;0.70;0.70;;;21.20;63.50;;;;;;5081851;28;20105;-65
2022/06/02 15:38:56;;;;;;;1.27;0.85;;;21.30;63.50;;;;;;5093955;28;20116;-65
2022/06/02 15:42:03;;;;;;;0.90;0.90;;;21.40;63.60;;;;;;5089912;28;20043;-65
2022/06/02 15:45:10;;;;;;;0.70;0.70;;;21.40;63.50;;;;;;5092665;28;20199;-66
2022/06/02 15:48:17;;;;;;;0.68;0.68;;;21.50;63.40;;;;;;5093681;28;20105;-66
2022/06/02 15:51:23;;;;;;;0.63;0.63;;;21.60;63.40;;;;;;5091003;28;20040;-66
2022/06/02 15:54:30;;;;;;;0.90;0.90;;;21.60;63.30;;;;;;5097141;28;20329;-66
2022/06/02 15:57:38;;;;;;;2.20;1.30;;;21.60;63.10;;;;;;5103206;28;20044;-66
2022/06/02 16:00:40;;;;;;;0.55;0.55;;;21.70;63.00;;;;;;5105576;28;20044;-66
2022/06/02 16:03:46;;;;;;;0.63;0.63;;;21.70;63.00;;;;;;5104855;28;20054;-66
2022/06/02 16:06:53;;;;;;;0.77;0.77;;;21.80;66.90;;;;;;5099103;28;20048;-66
2022/06/02 16:13:15;;;;;;;0.88;0.88;;;22.30;68.50;;;;;;5105214;28;20104;-66
2022/06/02 16:16:22;;;;;;;0.63;0.63;;;22.50;68.20;;;;;;5105617;28;20474;-66
2022/06/02 16:19:26;;;;;;;0.60;0.60;;;22.70;67.80;;;;;;5103786;28;20043;-65
2022/06/02 16:22:33;;;;;;;0.70;0.70;;;23.00;67.70;;;;;;5105508;27;20458;-66
2022/06/02 16:25:40;;;;;;;1.70;0.65;;;23.10;67.50;;;;;;5100404;28;20288;-67